• Join FlightAware (Why Join?)
  • Login
  • US Flag 
Gobble Gobble! 
05:44AM EST


 

Airport Tracker/Info


-or-


 

Live Flight TrackerFlight Track Log ✈ GGN7280 ✈ 18-Apr-2013 ✈ CYYZ - KROC

Flight Track Log - Related Links

Times and Time Zones

All times are in EDT time to prevent confusion due to time zone crossing. See the GGN7280 flight status page for this flight to view local times or setup timezone preferences in your user account.

Time Position Orientation Groundspeed Altitude Reporting Facility
EDT Latitude Longitude Course Direction KTS MPH feet Rate Location/Type
04:59PM 43.6667 -79.5833 180° South 60 69 800  Level Toronto Center
05:00PM 43.6333 -79.5833 180° South 130 150 2,500 1,680 Climbing Toronto Center
05:01PM 43.5833 -79.5833 180° South 140 161 4,200 1,200 Climbing Toronto Center
05:02PM 43.5667 -79.5167 109° East 200 230 5,000 1,140 Climbing Toronto Center
05:03PM 43.5500 -79.4333 105° East 240 276 6,500 1,440 Climbing Toronto Center
05:04PM 43.5333 -79.3333 103° East 230 265 7,900 900 Climbing Toronto Center
05:05PM 43.5167 -79.2500 105° East 250 288 8,400 1,260 Climbing Toronto Center
05:06PM 43.5000 -79.1500 103° East 240 276 10,500 1,260 Climbing Toronto Center
05:07PM 43.4667 -79.0833 125° Southeast 240 276 11,000 240 Climbing Toronto Center
05:08PM 43.4500 -78.9667 101° East 280 322 11,000  Level Toronto Center
05:09PM 43.4167 -78.8500 111° Southeast 290 334 11,000  Level Toronto Center
05:10PM 43.4000 -78.7667 105° East 300 345 11,000  Level Toronto Center
05:11PM 43.3667 -78.6500 111° Southeast 290 334 11,000  Level Toronto Center
05:11PM 43.3692 -78.6442 59° Northeast 289 333 11,000  Level Cleveland Center
05:12PM 43.3444 -78.5394 108° East 289 333 11,000  Level Cleveland Center
05:13PM 43.3158 -78.4489 113° Southeast 286 329 11,100 60 Climbing Cleveland Center
05:13PM 43.3044 -78.4008 108° East 289 333 11,100 -180 Level Cleveland Center
05:14PM 43.2908 -78.3331 105° East 289 333 10,900 -120 Descending Cleveland Center
05:14PM 43.2775 -78.2936 115° Southeast 293 337 11,000  Climbing Cleveland Center
05:15PM 43.2614 -78.2256 108° East 289 333 10,900  Descending Cleveland Center
05:15PM 43.2503 -78.1889 113° Southeast 291 335 11,000 60 Climbing Cleveland Center
05:16PM 43.2364 -78.1239 106° East 289 333 11,000 -120 Level Cleveland Center
05:17PM 43.2211 -78.0819 117° Southeast 281 323 10,900 -900 Descending Cleveland Center
05:17PM 43.2092 -78.0225 105° East 284 327 10,100 -1,620 Descending Cleveland Center
05:18PM 43.2131 -77.9142 87° East 278 320 8,400 -1,860 Descending Cleveland Center
05:19PM 43.2189 -77.8114 86° East 273 314 6,400 -2,160 Descending Cleveland Center
05:20PM 43.2208 -77.7172 88° East 259 298 4,100 -1,980 Descending Cleveland Center
05:21PM 43.1944 -77.6614 123° Southeast 195 224 2,500 -1,320 Descending Cleveland Center
05:22PM 43.1567 -77.6547 173° South 109 125 1,400 -900 Descending Cleveland Center
05:23PM 43.1239 -77.6761 205° Southwest 122 140 700 -720 Descending Cleveland Center
05:25PM 43.1167 -77.6667 North  Level FlightAware Approximate
05:32PM 43.1191 -77.6719 North  Level Estimated